McGrath, AK

4:49 AM AKDT on June 02, 2015 (GMT -0800)
Nikolai AP, Nikolai, AK | | Change Station
CLOSE
Current Station
Airport
Location: Nikolai AP, Nikolai, AK,
Elevation: 413 ft
Nearby Weather Stations

Elev 413 ft 63.02 °N, 154.36 °W | Updated 53 minutes ago

Clear
Clear
46 °F
Feels Like 41 °F
N
10
Wind Variable Wind from NNE

Today
High -- | Low -- °F
--% Chance of Precip.
Yesterday
High -- | Low -- °F
Precip. -- in
4:32 AM 0:04 AM
Full, 100% visible
Pressure 29.76 in
Visibility 10.0 miles
Clouds Clear
Windchill 41 °F
Dew Point 33 °F
Humidity 61%
Rainfall 0.00 in
Snow Depth Not available.
UV 0 out of 12
Pollen Not available.
Air Quality Not available.
Flu Activity Sporadic
METAR PAFS 021156Z AUTO 02009KT 10SM CLR 08/01 A2973 RMK AO2 TSNO 58009 T00770005 10138 20077 SLP076 $

More Conditions Fewer Conditions

Pressure 29.76 in
Visibility 10.0 miles
Clouds Clear
Windchill 41 °F
Dew Point 33 °F
Humidity 61%
Rainfall 0.00 in
Snow Depth Not available.
UV 0 out of 12
Pollen Not available.
Air Quality Not available.
Flu Activity Sporadic
METAR PAFS 021156Z AUTO 02009KT 10SM CLR 08/01 A2973 RMK AO2 TSNO 58009 T00770005 10138 20077 SLP076 $

More Conditions Fewer Conditions

10-Day Weather Forecast

Almanac

Astronomy

Jun. 02, 2015 Rise Set
Actual Time
Civil Twilight
Nautical Twilight
Astronomical Twilight
Moon
Length of Visible Light
Length of Day
Tomorrow will be .
, % of the Moon is Illuminated

Today's Extremes

State Highs State Lows

Community

WunderPhotos

Upload Photos

1,825,892 photos uploaded!

WunderBlogs® & News

Nearby

Air Quality

  Air Quality AQ Index Pollutant
Not available.

Snow Depth

Station Depth Elevation

Earthquake Activity

City Distance Mag. Time & Date
Minimum magnitude displayed is 2.5.

Coastal Water Temperatures

Place Temperature

Stations

Nearby Weather Stations

Station Location Temp. Windchill Dew Point Humidity Wind Precip. Elev Updated Type